Dennis Ross — WDB7118 — position and weather

sailwx.info

Track history (hours):
 
Tides and Currents Weather Stations Pressure Air Temp Water Temp Dewpoint Dewpoint Depression Visibility Wind Speed Wind Dir Waves Ship Positions

Dennis Ross

Owner: Magnolia Marine Transport Co, Vicksburg, MS. More information available from US FCC via Universal Licensing System and Coast Guard Vessel Documentation Center.

Last reported at 2017-Aug-30 22:39 UTC. Time now 2017-Sep-23 03:43 UTC.
Position N 32°38' W 091°09'.
Warning: this ship's position is 23 days out of date.

Length 62 m; draft 2.8 m.

Type: Towing. MMSI: 366936680.

Date/timePositionNaut miles runAvg speedWind from/ knotsBaromVisibWave heightAir tempDewpointWater temp
2017-Aug-30 22:39N 32°38' W 091°09'0 0.4
2017-Aug-30 22:30N 32°38' W 091°09'1 1.6
2017-Aug-30 22:00N 32°38' W 091°09'2 4.0
2017-Aug-30 21:30N 32°36' W 091°08'2 4.3
2017-Aug-30 21:00N 32°34' W 091°06'2 3.9
2017-Aug-30 20:30N 32°32' W 091°06'2 4.6
2017-Aug-30 20:00N 32°30' W 091°07'2 4.5
2017-Aug-30 19:30N 32°28' W 091°06'2 4.5
2017-Aug-30 19:00N 32°27' W 091°04'2 4.4
2017-Aug-30 18:30N 32°26' W 091°02'2 3.9
2017-Aug-30 18:00N 32°25' W 090°60'2 3.5
2017-Aug-30 17:30N 32°23' W 090°60'1 2.6
2017-Aug-30 17:00N 32°22' W 091°00'0 0.9
2017-Aug-30 16:30N 32°21' W 091°00'2 4.1
2017-Aug-30 16:00N 32°21' W 090°58'2 4.4
2017-Aug-30 15:30N 32°21' W 090°55'2 3.1
2017-Aug-30 15:00N 32°20' W 090°54'0 0.2
2017-Aug-30 14:30N 32°21' W 090°54'0 0.0
2017-Aug-30 14:00N 32°21' W 090°54'0 0.0
2017-Aug-30 13:30N 32°21' W 090°54'0 0.0
2017-Aug-30 13:00N 32°21' W 090°54'0 0.0
2017-Aug-30 12:30N 32°21' W 090°54'0 0.0
2017-Aug-30 12:00N 32°21' W 090°54'0 0.0
2017-Aug-30 11:30N 32°21' W 090°54'0 0.0
2017-Aug-30 11:00N 32°21' W 090°54'0 0.0
2017-Aug-30 10:30N 32°21' W 090°54'0 0.0
2017-Aug-30 10:00N 32°21' W 090°54'0 0.0
2017-Aug-30 09:30N 32°21' W 090°54'0 0.0
2017-Aug-30 09:00N 32°21' W 090°54'0 0.0
2017-Aug-30 08:30N 32°21' W 090°54'0 0.2
2017-Aug-30 08:00N 32°21' W 090°53'2 4.4
2017-Aug-30 07:30N 32°23' W 090°53'1 1.6
2017-Aug-30 07:00N 32°23' W 090°53'0 0.1
2017-Aug-30 06:30N 32°23' W 090°53'1 1.7
2017-Aug-30 06:00N 32°23' W 090°54'1 1.5
2017-Aug-30 05:30N 32°23' W 090°55'0 0.0
2017-Aug-30 05:00N 32°23' W 090°55'0 0.0
2017-Aug-30 04:30N 32°23' W 090°55'0 0.0
2017-Aug-30 04:00N 32°23' W 090°55'0 0.0
2017-Aug-30 03:30N 32°23' W 090°55'0 0.0
2017-Aug-30 03:00N 32°23' W 090°55'0 0.0
2017-Aug-30 02:30N 32°23' W 090°55'0 0.0
2017-Aug-30 02:00N 32°23' W 090°55'0 0.0
2017-Aug-30 01:30N 32°23' W 090°55'0 0.0
2017-Aug-30 01:00N 32°23' W 090°55'0 0.0
2017-Aug-30 00:30N 32°23' W 090°55'0 0.0
2017-Aug-30 00:00N 32°23' W 090°55'0 0.0
2017-Aug-29 23:30N 32°23' W 090°55'0 0.0
2017-Aug-29 23:00N 32°23' W 090°55'0 0.1
2017-Aug-29 22:30N 32°23' W 090°55'0 0.2
2017-Aug-29 22:00N 32°23' W 090°55'0 0.4
2017-Aug-29 21:30N 32°23' W 090°55'0 0.9
2017-Aug-29 21:00N 32°23' W 090°54'2 3.2
2017-Aug-29 20:30N 32°22' W 090°53'1 2.2
2017-Aug-29 20:00N 32°21' W 090°53'1 2.0
2017-Aug-29 19:30N 32°20' W 090°54'3 5.1
2017-Aug-29 19:00N 32°18' W 090°56'3 5.1
2017-Aug-29 18:30N 32°16' W 090°58'2 3.9
2017-Aug-29 18:00N 32°14' W 090°59'2 4.8
2017-Aug-29 17:30N 32°12' W 090°59'2 3.7
2017-Aug-29 17:00N 32°10' W 091°00'2 4.4
2017-Aug-29 16:30N 32°08' W 091°01'5 4.1
2017-Aug-29 15:20N 32°08' W 091°06'1 3.8
2017-Aug-29 15:00N 32°07' W 091°06'5 4.4
2017-Aug-29 13:55N 32°02' W 091°04'  
2017-Aug-23 04:48N 31°52' W 091°15'  
Track history (hours):
 
Tides and Currents Weather Stations Pressure Air Temp Water Temp Dewpoint Dewpoint Depression Visibility Wind Speed Wind Dir Waves Ship Positions

Dennis Ross

Owner: Magnolia Marine Transport Co, Vicksburg, MS. More information available from US FCC via Universal Licensing System and Coast Guard Vessel Documentation Center.

Last reported at 2017-Aug-30 22:39 UTC. Time now 2017-Sep-23 03:43 UTC.
Position N 32°38' W 091°09'.
Warning: this ship's position is 23 days out of date.

Length 62 m; draft 2.8 m.

Type: Towing. MMSI: 366936680.

Date/timePositionNaut miles runAvg speedWind from/ knotsBaromVisibWave heightAir tempDewpointWater temp
2017-Aug-30 22:39N 32°38' W 091°09'0 0.4
2017-Aug-30 22:30N 32°38' W 091°09'1 1.6
2017-Aug-30 22:00N 32°38' W 091°09'2 4.0
2017-Aug-30 21:30N 32°36' W 091°08'2 4.3
2017-Aug-30 21:00N 32°34' W 091°06'2 3.9
2017-Aug-30 20:30N 32°32' W 091°06'2 4.6
2017-Aug-30 20:00N 32°30' W 091°07'2 4.5
2017-Aug-30 19:30N 32°28' W 091°06'2 4.5
2017-Aug-30 19:00N 32°27' W 091°04'2 4.4
2017-Aug-30 18:30N 32°26' W 091°02'2 3.9
2017-Aug-30 18:00N 32°25' W 090°60'2 3.5
2017-Aug-30 17:30N 32°23' W 090°60'1 2.6
2017-Aug-30 17:00N 32°22' W 091°00'0 0.9
2017-Aug-30 16:30N 32°21' W 091°00'2 4.1
2017-Aug-30 16:00N 32°21' W 090°58'2 4.4
2017-Aug-30 15:30N 32°21' W 090°55'2 3.1
2017-Aug-30 15:00N 32°20' W 090°54'0 0.2
2017-Aug-30 14:30N 32°21' W 090°54'0 0.0
2017-Aug-30 14:00N 32°21' W 090°54'0 0.0
2017-Aug-30 13:30N 32°21' W 090°54'0 0.0
2017-Aug-30 13:00N 32°21' W 090°54'0 0.0
2017-Aug-30 12:30N 32°21' W 090°54'0 0.0
2017-Aug-30 12:00N 32°21' W 090°54'0 0.0
2017-Aug-30 11:30N 32°21' W 090°54'0 0.0
2017-Aug-30 11:00N 32°21' W 090°54'0 0.0
2017-Aug-30 10:30N 32°21' W 090°54'0 0.0
2017-Aug-30 10:00N 32°21' W 090°54'0 0.0
2017-Aug-30 09:30N 32°21' W 090°54'0 0.0
2017-Aug-30 09:00N 32°21' W 090°54'0 0.0
2017-Aug-30 08:30N 32°21' W 090°54'0 0.2
2017-Aug-30 08:00N 32°21' W 090°53'2 4.4
2017-Aug-30 07:30N 32°23' W 090°53'1 1.6
2017-Aug-30 07:00N 32°23' W 090°53'0 0.1
2017-Aug-30 06:30N 32°23' W 090°53'1 1.7
2017-Aug-30 06:00N 32°23' W 090°54'1 1.5
2017-Aug-30 05:30N 32°23' W 090°55'0 0.0
2017-Aug-30 05:00N 32°23' W 090°55'0 0.0
2017-Aug-30 04:30N 32°23' W 090°55'0 0.0
2017-Aug-30 04:00N 32°23' W 090°55'0 0.0
2017-Aug-30 03:30N 32°23' W 090°55'0 0.0
2017-Aug-30 03:00N 32°23' W 090°55'0 0.0
2017-Aug-30 02:30N 32°23' W 090°55'0 0.0
2017-Aug-30 02:00N 32°23' W 090°55'0 0.0
2017-Aug-30 01:30N 32°23' W 090°55'0 0.0
2017-Aug-30 01:00N 32°23' W 090°55'0 0.0
2017-Aug-30 00:30N 32°23' W 090°55'0 0.0
2017-Aug-30 00:00N 32°23' W 090°55'0 0.0
2017-Aug-29 23:30N 32°23' W 090°55'0 0.0
2017-Aug-29 23:00N 32°23' W 090°55'0 0.1
2017-Aug-29 22:30N 32°23' W 090°55'0 0.2
2017-Aug-29 22:00N 32°23' W 090°55'0 0.4
2017-Aug-29 21:30N 32°23' W 090°55'0 0.9
2017-Aug-29 21:00N 32°23' W 090°54'2 3.2
2017-Aug-29 20:30N 32°22' W 090°53'1 2.2
2017-Aug-29 20:00N 32°21' W 090°53'1 2.0
2017-Aug-29 19:30N 32°20' W 090°54'3 5.1
2017-Aug-29 19:00N 32°18' W 090°56'3 5.1
2017-Aug-29 18:30N 32°16' W 090°58'2 3.9
2017-Aug-29 18:00N 32°14' W 090°59'2 4.8
2017-Aug-29 17:30N 32°12' W 090°59'2 3.7
2017-Aug-29 17:00N 32°10' W 091°00'2 4.4
2017-Aug-29 16:30N 32°08' W 091°01'5 4.1
2017-Aug-29 15:20N 32°08' W 091°06'1 3.8
2017-Aug-29 15:00N 32°07' W 091°06'5 4.4
2017-Aug-29 13:55N 32°02' W 091°04'  
2017-Aug-23 04:48N 31°52' W 091°15'  

Dump ship's entire track history